sensor_id;sensor_type;location;lat;lon;timestamp;pressure;altitude;pressure_sealevel;temperature
71807;BMP280;59655;42.590;23.364;2022-07-15T00:02:07;91749.59;;;18.51
71807;BMP280;59655;42.590;23.364;2022-07-15T00:04:34;91745.63;;;18.52
71807;BMP280;59655;42.590;23.364;2022-07-15T00:07:00;91747.00;;;18.53
71807;BMP280;59655;42.590;23.364;2022-07-15T00:09:25;91741.28;;;18.59
71807;BMP280;59655;42.590;23.364;2022-07-15T00:12:10;91742.56;;;18.58
71807;BMP280;59655;42.590;23.364;2022-07-15T00:14:36;91746.66;;;18.59
71807;BMP280;59655;42.590;23.364;2022-07-15T00:17:01;91741.88;;;18.57
71807;BMP280;59655;42.590;23.364;2022-07-15T00:19:27;91743.41;;;18.60
71807;BMP280;59655;42.590;23.364;2022-07-15T00:21:52;91746.34;;;18.64
71807;BMP280;59655;42.590;23.364;2022-07-15T00:24:18;91743.06;;;18.54
71807;BMP280;59655;42.590;23.364;2022-07-15T00:26:43;91741.03;;;18.43
71807;BMP280;59655;42.590;23.364;2022-07-15T00:29:09;91743.97;;;18.35
71807;BMP280;59655;42.590;23.364;2022-07-15T00:31:35;91746.19;;;18.27
71807;BMP280;59655;42.590;23.364;2022-07-15T00:34:01;91755.13;;;18.20
71807;BMP280;59655;42.590;23.364;2022-07-15T00:36:26;91747.53;;;18.16
71807;BMP280;59655;42.590;23.364;2022-07-15T00:38:52;91752.78;;;18.14
71807;BMP280;59655;42.590;23.364;2022-07-15T00:41:17;91748.78;;;18.15
71807;BMP280;59655;42.590;23.364;2022-07-15T00:43:43;91749.28;;;18.12
71807;BMP280;59655;42.590;23.364;2022-07-15T00:46:09;91748.44;;;18.09
71807;BMP280;59655;42.590;23.364;2022-07-15T00:48:34;91746.59;;;18.12
71807;BMP280;59655;42.590;23.364;2022-07-15T00:50:59;91739.44;;;18.05
71807;BMP280;59655;42.590;23.364;2022-07-15T00:53:26;91740.13;;;18.05
71807;BMP280;59655;42.590;23.364;2022-07-15T00:55:56;91738.22;;;17.96
71807;BMP280;59655;42.590;23.364;2022-07-15T00:58:26;91735.09;;;18.00
71807;BMP280;59655;42.590;23.364;2022-07-15T01:00:53;91730.50;;;17.90
71807;BMP280;59655;42.590;23.364;2022-07-15T01:03:19;91722.94;;;17.87
71807;BMP280;59655;42.590;23.364;2022-07-15T01:05:46;91724.09;;;17.84
71807;BMP280;59655;42.590;23.364;2022-07-15T01:08:13;91726.97;;;17.76
71807;BMP280;59655;42.590;23.364;2022-07-15T01:10:39;91727.19;;;17.80
71807;BMP280;59655;42.590;23.364;2022-07-15T01:13:05;91721.34;;;17.72
71807;BMP280;59655;42.590;23.364;2022-07-15T01:15:31;91727.34;;;17.61
71807;BMP280;59655;42.590;23.364;2022-07-15T01:17:59;91720.00;;;17.61
71807;BMP280;59655;42.590;23.364;2022-07-15T01:20:25;91713.69;;;17.57
71807;BMP280;59655;42.590;23.364;2022-07-15T01:22:50;91726.88;;;17.53
71807;BMP280;59655;42.590;23.364;2022-07-15T01:25:16;91715.19;;;17.60
71807;BMP280;59655;42.590;23.364;2022-07-15T01:27:41;91711.00;;;17.57
71807;BMP280;59655;42.590;23.364;2022-07-15T01:30:08;91713.31;;;17.51
71807;BMP280;59655;42.590;23.364;2022-07-15T01:32:33;91708.84;;;17.43
71807;BMP280;59655;42.590;23.364;2022-07-15T01:34:59;91715.00;;;17.34
71807;BMP280;59655;42.590;23.364;2022-07-15T01:37:25;91710.28;;;17.35
71807;BMP280;59655;42.590;23.364;2022-07-15T01:39:50;91710.03;;;17.31
71807;BMP280;59655;42.590;23.364;2022-07-15T01:42:16;91709.94;;;17.29
71807;BMP280;59655;42.590;23.364;2022-07-15T01:44:41;91705.13;;;17.27
71807;BMP280;59655;42.590;23.364;2022-07-15T01:47:07;91696.84;;;17.23
71807;BMP280;59655;42.590;23.364;2022-07-15T01:49:32;91698.63;;;17.30
71807;BMP280;59655;42.590;23.364;2022-07-15T01:51:59;91705.41;;;17.31
71807;BMP280;59655;42.590;23.364;2022-07-15T01:54:27;91706.09;;;17.32
71807;BMP280;59655;42.590;23.364;2022-07-15T01:56:53;91697.59;;;17.35
71807;BMP280;59655;42.590;23.364;2022-07-15T01:59:19;91701.81;;;17.38
71807;BMP280;59655;42.590;23.364;2022-07-15T02:01:48;91691.81;;;17.39
71807;BMP280;59655;42.590;23.364;2022-07-15T02:04:14;91700.81;;;17.43
71807;BMP280;59655;42.590;23.364;2022-07-15T02:06:40;91701.75;;;17.48
71807;BMP280;59655;42.590;23.364;2022-07-15T02:09:06;91709.41;;;17.42
71807;BMP280;59655;42.590;23.364;2022-07-15T02:11:31;91709.16;;;17.38
71807;BMP280;59655;42.590;23.364;2022-07-15T02:13:57;91710.03;;;17.31
71807;BMP280;59655;42.590;23.364;2022-07-15T02:16:28;91709.63;;;17.34
71807;BMP280;59655;42.590;23.364;2022-07-15T02:18:54;91714.84;;;17.32
71807;BMP280;59655;42.590;23.364;2022-07-15T02:21:20;91712.72;;;17.31
71807;BMP280;59655;42.590;23.364;2022-07-15T02:23:46;91704.13;;;17.32
71807;BMP280;59655;42.590;23.364;2022-07-15T02:26:11;91701.44;;;17.32
71807;BMP280;59655;42.590;23.364;2022-07-15T02:28:37;91703.56;;;17.34
71807;BMP280;59655;42.590;23.364;2022-07-15T02:31:02;91703.88;;;17.28
71807;BMP280;59655;42.590;23.364;2022-07-15T02:33:29;91707.19;;;17.38
71807;BMP280;59655;42.590;23.364;2022-07-15T02:35:55;91705.47;;;17.21
71807;BMP280;59655;42.590;23.364;2022-07-15T02:38:20;91705.91;;;17.18
71807;BMP280;59655;42.590;23.364;2022-07-15T02:40:47;91703.63;;;17.24
71807;BMP280;59655;42.590;23.364;2022-07-15T02:43:15;91704.94;;;17.13
71807;BMP280;59655;42.590;23.364;2022-07-15T02:45:41;91702.13;;;17.11
71807;BMP280;59655;42.590;23.364;2022-07-15T02:48:06;91703.16;;;17.06
71807;BMP280;59655;42.590;23.364;2022-07-15T02:50:32;91703.03;;;17.04
71807;BMP280;59655;42.590;23.364;2022-07-15T02:53:01;91693.19;;;16.97
71807;BMP280;59655;42.590;23.364;2022-07-15T02:55:27;91704.63;;;16.97
71807;BMP280;59655;42.590;23.364;2022-07-15T02:57:52;91703.06;;;16.94
71807;BMP280;59655;42.590;23.364;2022-07-15T03:00:18;91691.25;;;16.88
71807;BMP280;59655;42.590;23.364;2022-07-15T03:02:45;91692.22;;;16.92
71807;BMP280;59655;42.590;23.364;2022-07-15T03:05:12;91692.50;;;16.96
71807;BMP280;59655;42.590;23.364;2022-07-15T03:07:38;91696.13;;;17.01
71807;BMP280;59655;42.590;23.364;2022-07-15T03:10:05;91696.69;;;16.99
71807;BMP280;59655;42.590;23.364;2022-07-15T03:12:32;91689.28;;;17.10
71807;BMP280;59655;42.590;23.364;2022-07-15T03:14:58;91695.31;;;17.20
71807;BMP280;59655;42.590;23.364;2022-07-15T03:17:24;91689.94;;;17.20
71807;BMP280;59655;42.590;23.364;2022-07-15T03:19:50;91694.59;;;17.19
71807;BMP280;59655;42.590;23.364;2022-07-15T03:22:15;91687.25;;;17.20
71807;BMP280;59655;42.590;23.364;2022-07-15T03:24:41;91685.97;;;17.21
71807;BMP280;59655;42.590;23.364;2022-07-15T03:27:07;91688.91;;;17.25
71807;BMP280;59655;42.590;23.364;2022-07-15T03:29:33;91684.31;;;17.16
71807;BMP280;59655;42.590;23.364;2022-07-15T03:31:59;91687.47;;;17.12
71807;BMP280;59655;42.590;23.364;2022-07-15T03:34:24;91680.66;;;17.11
71807;BMP280;59655;42.590;23.364;2022-07-15T03:36:50;91675.75;;;17.08
71807;BMP280;59655;42.590;23.364;2022-07-15T03:39:16;91680.28;;;17.05
71807;BMP280;59655;42.590;23.364;2022-07-15T03:41:41;91680.28;;;17.05
71807;BMP280;59655;42.590;23.364;2022-07-15T03:44:07;91675.75;;;17.08
71807;BMP280;59655;42.590;23.364;2022-07-15T03:46:32;91679.56;;;17.14
71807;BMP280;59655;42.590;23.364;2022-07-15T03:48:59;91677.94;;;17.21
71807;BMP280;59655;42.590;23.364;2022-07-15T03:51:26;91677.69;;;17.17
71807;BMP280;59655;42.590;23.364;2022-07-15T03:53:59;91684.56;;;17.20
71807;BMP280;59655;42.590;23.364;2022-07-15T03:56:25;91677.59;;;17.27
71807;BMP280;59655;42.590;23.364;2022-07-15T03:58:52;91680.53;;;17.31
71807;BMP280;59655;42.590;23.364;2022-07-15T04:01:18;91677.16;;;17.30
71807;BMP280;59655;42.590;23.364;2022-07-15T04:03:44;91680.34;;;17.38
71807;BMP280;59655;42.590;23.364;2022-07-15T04:06:09;91687.50;;;17.45
71807;BMP280;59655;42.590;23.364;2022-07-15T04:08:35;91684.13;;;17.45
71807;BMP280;59655;42.590;23.364;2022-07-15T04:11:00;91676.91;;;17.47
71807;BMP280;59655;42.590;23.364;2022-07-15T04:13:26;91674.59;;;17.54
71807;BMP280;59655;42.590;23.364;2022-07-15T04:15:51;91683.63;;;17.58
71807;BMP280;59655;42.590;23.364;2022-07-15T04:18:17;91689.78;;;17.61
71807;BMP280;59655;42.590;23.364;2022-07-15T04:20:43;91683.41;;;17.66
71807;BMP280;59655;42.590;23.364;2022-07-15T04:23:08;91689.84;;;17.73
71807;BMP280;59655;42.590;23.364;2022-07-15T04:25:34;91687.94;;;17.75
71807;BMP280;59655;42.590;23.364;2022-07-15T04:27:59;91686.13;;;17.78
71807;BMP280;59655;42.590;23.364;2022-07-15T04:30:24;91688.03;;;17.87
71807;BMP280;59655;42.590;23.364;2022-07-15T04:32:50;91691.50;;;17.89
71807;BMP280;59655;42.590;23.364;2022-07-15T04:35:16;91678.34;;;17.93
71807;BMP280;59655;42.590;23.364;2022-07-15T04:37:41;91692.59;;;17.96
71807;BMP280;59655;42.590;23.364;2022-07-15T04:40:07;91701.34;;;17.97
71807;BMP280;59655;42.590;23.364;2022-07-15T04:42:34;91702.19;;;17.99
71807;BMP280;59655;42.590;23.364;2022-07-15T04:45:00;91699.84;;;18.05
71807;BMP280;59655;42.590;23.364;2022-07-15T04:47:25;91706.88;;;18.10
71807;BMP280;59655;42.590;23.364;2022-07-15T04:49:51;91699.06;;;18.14
71807;BMP280;59655;42.590;23.364;2022-07-15T04:52:35;91700.84;;;18.22
71807;BMP280;59655;42.590;23.364;2022-07-15T04:55:00;91701.63;;;18.24
71807;BMP280;59655;42.590;23.364;2022-07-15T04:57:27;91699.19;;;18.28
71807;BMP280;59655;42.590;23.364;2022-07-15T04:59:52;91703.44;;;18.31
71807;BMP280;59655;42.590;23.364;2022-07-15T05:02:18;91697.00;;;18.36
71807;BMP280;59655;42.590;23.364;2022-07-15T05:04:43;91701.91;;;18.40
71807;BMP280;59655;42.590;23.364;2022-07-15T05:07:09;91706.09;;;18.43
71807;BMP280;59655;42.590;23.364;2022-07-15T05:09:34;91699.56;;;18.46
71807;BMP280;59655;42.590;23.364;2022-07-15T05:12:00;91704.47;;;18.50
71807;BMP280;59655;42.590;23.364;2022-07-15T05:14:25;91699.94;;;18.52
71807;BMP280;59655;42.590;23.364;2022-07-15T05:16:51;91698.06;;;18.55
71807;BMP280;59655;42.590;23.364;2022-07-15T05:19:17;91706.13;;;18.55
71807;BMP280;59655;42.590;23.364;2022-07-15T05:21:42;91706.34;;;18.59
71807;BMP280;59655;42.590;23.364;2022-07-15T05:24:07;91705.09;;;18.60
71807;BMP280;59655;42.590;23.364;2022-07-15T05:26:33;91706.72;;;18.65
71807;BMP280;59655;42.590;23.364;2022-07-15T05:28:59;91710.22;;;18.68
71807;BMP280;59655;42.590;23.364;2022-07-15T05:31:24;91706.38;;;18.71
71807;BMP280;59655;42.590;23.364;2022-07-15T05:33:50;91703.22;;;18.74
71807;BMP280;59655;42.590;23.364;2022-07-15T05:36:17;91708.69;;;18.76
71807;BMP280;59655;42.590;23.364;2022-07-15T05:38:43;91704.22;;;18.81
71807;BMP280;59655;42.590;23.364;2022-07-15T05:41:09;91708.47;;;18.84
71807;BMP280;59655;42.590;23.364;2022-07-15T05:43:35;91709.97;;;18.87
71807;BMP280;59655;42.590;23.364;2022-07-15T05:46:01;91706.00;;;18.88
71807;BMP280;59655;42.590;23.364;2022-07-15T05:48:27;91704.09;;;18.91
71807;BMP280;59655;42.590;23.364;2022-07-15T05:50:54;91709.03;;;18.94
71807;BMP280;59655;42.590;23.364;2022-07-15T05:53:20;91706.56;;;18.98
71807;BMP280;59655;42.590;23.364;2022-07-15T05:55:45;91705.97;;;19.00
71807;BMP280;59655;42.590;23.364;2022-07-15T05:58:10;91705.53;;;19.03
71807;BMP280;59655;42.590;23.364;2022-07-15T06:00:37;91698.84;;;19.04
71807;BMP280;59655;42.590;23.364;2022-07-15T06:03:03;91705.13;;;19.09
71807;BMP280;59655;42.590;23.364;2022-07-15T06:05:30;91705.97;;;19.11
71807;BMP280;59655;42.590;23.364;2022-07-15T06:07:55;91710.28;;;19.17
71807;BMP280;59655;42.590;23.364;2022-07-15T06:10:21;91703.22;;;19.23
71807;BMP280;59655;42.590;23.364;2022-07-15T06:12:46;91710.16;;;19.26
71807;BMP280;59655;42.590;23.364;2022-07-15T06:15:12;91706.28;;;19.29
71807;BMP280;59655;42.590;23.364;2022-07-15T06:17:38;91710.13;;;19.38
71807;BMP280;59655;42.590;23.364;2022-07-15T06:20:05;91708.94;;;19.41
71807;BMP280;59655;42.590;23.364;2022-07-15T06:22:30;91711.06;;;19.43
71807;BMP280;59655;42.590;23.364;2022-07-15T06:24:56;91713.97;;;19.47
71807;BMP280;59655;42.590;23.364;2022-07-15T06:27:21;91714.88;;;19.51
71807;BMP280;59655;42.590;23.364;2022-07-15T06:29:51;91711.00;;;19.54
71807;BMP280;59655;42.590;23.364;2022-07-15T06:32:18;91713.25;;;19.58
71807;BMP280;59655;42.590;23.364;2022-07-15T06:34:44;91709.34;;;19.61
71807;BMP280;59655;42.590;23.364;2022-07-15T06:37:09;91713.91;;;19.58
71807;BMP280;59655;42.590;23.364;2022-07-15T06:39:35;91721.41;;;19.60
71807;BMP280;59655;42.590;23.364;2022-07-15T06:42:01;91724.81;;;19.61
71807;BMP280;59655;42.590;23.364;2022-07-15T06:44:26;91714.81;;;19.63
71807;BMP280;59655;42.590;23.364;2022-07-15T06:46:52;91714.38;;;19.67
71807;BMP280;59655;42.590;23.364;2022-07-15T06:49:18;91715.28;;;19.71
71807;BMP280;59655;42.590;23.364;2022-07-15T06:51:43;91711.97;;;19.73
71807;BMP280;59655;42.590;23.364;2022-07-15T06:54:09;91714.88;;;19.77
71807;BMP280;59655;42.590;23.364;2022-07-15T06:56:34;91714.31;;;19.78
71807;BMP280;59655;42.590;23.364;2022-07-15T06:59:00;91711.69;;;19.80
71807;BMP280;59655;42.590;23.364;2022-07-15T07:01:25;91711.81;;;19.82
71807;BMP280;59655;42.590;23.364;2022-07-15T07:03:51;91712.53;;;19.83
71807;BMP280;59655;42.590;23.364;2022-07-15T07:06:16;91709.25;;;19.85
71807;BMP280;59655;42.590;23.364;2022-07-15T07:08:42;91718.72;;;19.86
71807;BMP280;59655;42.590;23.364;2022-07-15T07:11:07;91720.72;;;19.85
71807;BMP280;59655;42.590;23.364;2022-07-15T07:13:33;91718.25;;;19.89
71807;BMP280;59655;42.590;23.364;2022-07-15T07:15:59;91722.44;;;19.92
71807;BMP280;59655;42.590;23.364;2022-07-15T07:18:24;91718.47;;;19.93
71807;BMP280;59655;42.590;23.364;2022-07-15T07:20:50;91721.94;;;19.96
71807;BMP280;59655;42.590;23.364;2022-07-15T07:23:15;91722.06;;;19.98
71807;BMP280;59655;42.590;23.364;2022-07-15T07:25:41;91721.94;;;19.96
71807;BMP280;59655;42.590;23.364;2022-07-15T07:28:07;91720.66;;;19.97
71807;BMP280;59655;42.590;23.364;2022-07-15T07:30:33;91722.88;;;20.00
71807;BMP280;59655;42.590;23.364;2022-07-15T07:32:58;91726.28;;;20.01
71807;BMP280;59655;42.590;23.364;2022-07-15T07:35:24;91719.78;;;20.06
71807;BMP280;59655;42.590;23.364;2022-07-15T07:37:50;91716.41;;;20.05
71807;BMP280;59655;42.590;23.364;2022-07-15T07:40:15;91717.22;;;20.08
71807;BMP280;59655;42.590;23.364;2022-07-15T07:42:44;91717.22;;;20.08
71807;BMP280;59655;42.590;23.364;2022-07-15T07:45:09;91716.59;;;20.10
71807;BMP280;59655;42.590;23.364;2022-07-15T07:47:36;91712.13;;;20.14
71807;BMP280;59655;42.590;23.364;2022-07-15T07:50:04;91716.22;;;20.15
71807;BMP280;59655;42.590;23.364;2022-07-15T07:52:29;91713.75;;;20.19
71807;BMP280;59655;42.590;23.364;2022-07-15T07:54:55;91715.25;;;20.22
71807;BMP280;59655;42.590;23.364;2022-07-15T07:57:20;91717.16;;;20.20
71807;BMP280;59655;42.590;23.364;2022-07-15T07:59:45;91717.25;;;20.22
71807;BMP280;59655;42.590;23.364;2022-07-15T08:02:11;91722.84;;;20.26
71807;BMP280;59655;42.590;23.364;2022-07-15T08:04:36;91717.16;;;20.34
71807;BMP280;59655;42.590;23.364;2022-07-15T08:07:02;91715.97;;;20.37
71807;BMP280;59655;42.590;23.364;2022-07-15T08:09:30;91718.75;;;20.39
71807;BMP280;59655;42.590;23.364;2022-07-15T08:11:55;91713.50;;;20.41
71807;BMP280;59655;42.590;23.364;2022-07-15T08:14:21;91720.38;;;20.44
71807;BMP280;59655;42.590;23.364;2022-07-15T08:16:46;91717.31;;;20.49
71807;BMP280;59655;42.590;23.364;2022-07-15T08:19:12;91715.50;;;20.54
71807;BMP280;59655;42.590;23.364;2022-07-15T08:21:41;91718.50;;;20.60
71807;BMP280;59655;42.590;23.364;2022-07-15T08:24:06;91722.00;;;20.63
71807;BMP280;59655;42.590;23.364;2022-07-15T08:26:32;91715.50;;;20.68
71807;BMP280;59655;42.590;23.364;2022-07-15T08:28:57;91716.31;;;20.70
71807;BMP280;59655;42.590;23.364;2022-07-15T08:31:23;91722.41;;;20.71
71807;BMP280;59655;42.590;23.364;2022-07-15T08:33:48;91720.53;;;20.73
71807;BMP280;59655;42.590;23.364;2022-07-15T08:36:14;91711.72;;;20.73
71807;BMP280;59655;42.590;23.364;2022-07-15T08:38:40;91720.09;;;20.79
71807;BMP280;59655;42.590;23.364;2022-07-15T08:41:06;91719.59;;;20.83
71807;BMP280;59655;42.590;23.364;2022-07-15T08:43:32;91722.09;;;20.92
71807;BMP280;59655;42.590;23.364;2022-07-15T08:45:58;91723.31;;;20.89
71807;BMP280;59655;42.590;23.364;2022-07-15T08:48:27;91715.41;;;20.93
71807;BMP280;59655;42.590;23.364;2022-07-15T08:50:55;91715.59;;;20.97
71807;BMP280;59655;42.590;23.364;2022-07-15T08:53:20;91716.28;;;20.98
71807;BMP280;59655;42.590;23.364;2022-07-15T08:55:46;91714.91;;;20.97
71807;BMP280;59655;42.590;23.364;2022-07-15T08:58:12;91710.31;;;20.99
71807;BMP280;59655;42.590;23.364;2022-07-15T09:00:37;91713.09;;;21.01
71807;BMP280;59655;42.590;23.364;2022-07-15T09:03:03;91714.13;;;21.08
71807;BMP280;59655;42.590;23.364;2022-07-15T09:05:31;91707.31;;;21.07
71807;BMP280;59655;42.590;23.364;2022-07-15T09:08:06;91717.59;;;21.11
71807;BMP280;59655;42.590;23.364;2022-07-15T09:10:53;91709.00;;;21.14
71807;BMP280;59655;42.590;23.364;2022-07-15T09:13:35;91707.09;;;21.17
71807;BMP280;59655;42.590;23.364;2022-07-15T09:18:33;91711.28;;;21.20
71807;BMP280;59655;42.590;23.364;2022-07-15T09:20:59;91701.19;;;21.20
71807;BMP280;59655;42.590;23.364;2022-07-15T09:23:29;91708.78;;;21.24
71807;BMP280;59655;42.590;23.364;2022-07-15T09:26:01;91706.16;;;21.26
71807;BMP280;59655;42.590;23.364;2022-07-15T09:28:44;91705.69;;;21.30
71807;BMP280;59655;42.590;23.364;2022-07-15T09:31:10;91703.94;;;21.36
71807;BMP280;59655;42.590;23.364;2022-07-15T09:34:02;91705.38;;;21.37
71807;BMP280;59655;42.590;23.364;2022-07-15T09:36:31;91705.38;;;21.37
71807;BMP280;59655;42.590;23.364;2022-07-15T09:39:00;91707.97;;;21.35
71807;BMP280;59655;42.590;23.364;2022-07-15T09:43:57;91704.53;;;21.48
71807;BMP280;59655;42.590;23.364;2022-07-15T09:46:26;91696.06;;;21.70
71807;BMP280;59655;42.590;23.364;2022-07-15T09:48:53;91705.34;;;21.96
71807;BMP280;59655;42.590;23.364;2022-07-15T09:51:19;91697.19;;;21.81
71807;BMP280;59655;42.590;23.364;2022-07-15T09:53:45;91695.34;;;21.69
71807;BMP280;59655;42.590;23.364;2022-07-15T09:56:17;91703.44;;;21.69
71807;BMP280;59655;42.590;23.364;2022-07-15T09:58:46;91695.97;;;21.68
71807;BMP280;59655;42.590;23.364;2022-07-15T10:01:12;91695.44;;;21.71
71807;BMP280;59655;42.590;23.364;2022-07-15T10:03:38;91702.00;;;21.82
71807;BMP280;59655;42.590;23.364;2022-07-15T10:06:05;91704.25;;;21.88
71807;BMP280;59655;42.590;23.364;2022-07-15T10:08:32;91697.28;;;21.83
71807;BMP280;59655;42.590;23.364;2022-07-15T10:10:58;91696.59;;;21.82
71807;BMP280;59655;42.590;23.364;2022-07-15T10:13:47;91702.56;;;21.94
71807;BMP280;59655;42.590;23.364;2022-07-15T10:19:27;91696.19;;;22.04
71807;BMP280;59655;42.590;23.364;2022-07-15T10:27:18;91700.66;;;22.13
71807;BMP280;59655;42.590;23.364;2022-07-15T10:29:46;91699.78;;;22.08
71807;BMP280;59655;42.590;23.364;2022-07-15T10:32:12;91694.47;;;22.10
71807;BMP280;59655;42.590;23.364;2022-07-15T10:34:38;91688.00;;;22.17
71807;BMP280;59655;42.590;23.364;2022-07-15T10:37:11;91688.28;;;22.23
71807;BMP280;59655;42.590;23.364;2022-07-15T10:42:11;91685.84;;;22.30
71807;BMP280;59655;42.590;23.364;2022-07-15T10:44:49;91680.94;;;22.26
71807;BMP280;59655;42.590;23.364;2022-07-15T10:49:41;91676.56;;;22.35
71807;BMP280;59655;42.590;23.364;2022-07-15T10:52:19;91679.63;;;22.43
71807;BMP280;59655;42.590;23.364;2022-07-15T10:54:47;91679.63;;;22.43
71807;BMP280;59655;42.590;23.364;2022-07-15T10:57:13;91680.94;;;22.42
71807;BMP280;59655;42.590;23.364;2022-07-15T10:59:52;91682.50;;;22.47
71807;BMP280;59655;42.590;23.364;2022-07-15T11:02:18;91683.44;;;22.54
71807;BMP280;59655;42.590;23.364;2022-07-15T11:04:46;91681.38;;;22.52
71807;BMP280;59655;42.590;23.364;2022-07-15T11:10:25;91680.25;;;22.75
71807;BMP280;59655;42.590;23.364;2022-07-15T11:15:19;91682.81;;;22.71
71807;BMP280;59655;42.590;23.364;2022-07-15T11:17:47;91674.75;;;22.73
71807;BMP280;59655;42.590;23.364;2022-07-15T11:20:16;91672.50;;;23.01
71807;BMP280;59655;42.590;23.364;2022-07-15T11:22:48;91670.66;;;23.06
71807;BMP280;59655;42.590;23.364;2022-07-15T11:28:04;91662.44;;;23.04
71807;BMP280;59655;42.590;23.364;2022-07-15T11:30:49;91664.56;;;23.05
71807;BMP280;59655;42.590;23.364;2022-07-15T11:33:19;91663.16;;;23.04
71807;BMP280;59655;42.590;23.364;2022-07-15T11:35:51;91663.47;;;23.12
71807;BMP280;59655;42.590;23.364;2022-07-15T11:38:20;91666.97;;;23.15
71807;BMP280;59655;42.590;23.364;2022-07-15T11:40:51;91660.78;;;23.12
71807;BMP280;59655;42.590;23.364;2022-07-15T11:43:36;91655.34;;;23.12
71807;BMP280;59655;42.590;23.364;2022-07-15T11:46:20;91664.31;;;23.17
71807;BMP280;59655;42.590;23.364;2022-07-15T11:48:48;91651.72;;;23.24
71807;BMP280;59655;42.590;23.364;2022-07-15T11:51:14;91652.50;;;23.26
71807;BMP280;59655;42.590;23.364;2022-07-15T11:53:43;91659.78;;;23.21
71807;BMP280;59655;42.590;23.364;2022-07-15T11:56:11;91650.34;;;23.23
71807;BMP280;59655;42.590;23.364;2022-07-15T11:58:43;91648.41;;;23.43
71807;BMP280;59655;42.590;23.364;2022-07-15T12:01:13;91645.50;;;23.57
71807;BMP280;59655;42.590;23.364;2022-07-15T12:03:47;91652.25;;;23.56
71807;BMP280;59655;42.590;23.364;2022-07-15T12:06:17;91651.84;;;23.81
71807;BMP280;59655;42.590;23.364;2022-07-15T12:11:19;91644.81;;;23.94
71807;BMP280;59655;42.590;23.364;2022-07-15T12:14:32;91639.72;;;24.02
71807;BMP280;59655;42.590;23.364;2022-07-15T12:19:07;91643.25;;;24.07
71807;BMP280;59655;42.590;23.364;2022-07-15T12:21:33;91647.94;;;24.04
71807;BMP280;59655;42.590;23.364;2022-07-15T12:24:09;91640.88;;;24.17
71807;BMP280;59655;42.590;23.364;2022-07-15T12:26:41;91645.69;;;24.18
71807;BMP280;59655;42.590;23.364;2022-07-15T12:29:09;91647.50;;;24.32
71807;BMP280;59655;42.590;23.364;2022-07-15T12:31:40;91648.81;;;24.51
71807;BMP280;59655;42.590;23.364;2022-07-15T12:34:05;91644.13;;;24.73
71807;BMP280;59655;42.590;23.364;2022-07-15T12:36:33;91645.84;;;25.06
71807;BMP280;59655;42.590;23.364;2022-07-15T12:39:14;91639.66;;;25.50
71807;BMP280;59655;42.590;23.364;2022-07-15T12:41:42;91647.19;;;25.75
71807;BMP280;59655;42.590;23.364;2022-07-15T12:44:09;91641.19;;;26.05
71807;BMP280;59655;42.590;23.364;2022-07-15T12:54:41;91642.16;;;27.94
71807;BMP280;59655;42.590;23.364;2022-07-15T13:02:25;91639.78;;;28.97
71807;BMP280;59655;42.590;23.364;2022-07-15T13:04:51;91632.72;;;29.26
71807;BMP280;59655;42.590;23.364;2022-07-15T13:07:17;91632.31;;;29.48
71807;BMP280;59655;42.590;23.364;2022-07-15T13:09:43;91635.25;;;29.66
71807;BMP280;59655;42.590;23.364;2022-07-15T13:12:10;91636.81;;;29.81
71807;BMP280;59655;42.590;23.364;2022-07-15T13:14:37;91637.69;;;29.98
71807;BMP280;59655;42.590;23.364;2022-07-15T13:17:03;91642.13;;;30.30
71807;BMP280;59655;42.590;23.364;2022-07-15T13:19:28;91639.09;;;30.76
71807;BMP280;59655;42.590;23.364;2022-07-15T13:21:54;91639.16;;;30.82
71807;BMP280;59655;42.590;23.364;2022-07-15T13:24:19;91641.94;;;30.90
71807;BMP280;59655;42.590;23.364;2022-07-15T13:26:45;91635.19;;;31.06
71807;BMP280;59655;42.590;23.364;2022-07-15T13:29:10;91638.59;;;31.04
71807;BMP280;59655;42.590;23.364;2022-07-15T13:31:35;91643.50;;;31.18
71807;BMP280;59655;42.590;23.364;2022-07-15T13:34:01;91634.63;;;31.26
71807;BMP280;59655;42.590;23.364;2022-07-15T13:36:26;91636.00;;;31.23
71807;BMP280;59655;42.590;23.364;2022-07-15T13:38:51;91634.81;;;31.58
71807;BMP280;59655;42.590;23.364;2022-07-15T13:41:17;91636.94;;;31.80
71807;BMP280;59655;42.590;23.364;2022-07-15T13:43:42;91628.81;;;32.39
71807;BMP280;59655;42.590;23.364;2022-07-15T13:46:08;91636.31;;;32.02
71807;BMP280;59655;42.590;23.364;2022-07-15T13:48:34;91637.63;;;31.81
71807;BMP280;59655;42.590;23.364;2022-07-15T13:50:59;91636.91;;;31.68
71807;BMP280;59655;42.590;23.364;2022-07-15T13:53:43;91637.50;;;31.52
71807;BMP280;59655;42.590;23.364;2022-07-15T13:56:08;91639.59;;;31.64
71807;BMP280;59655;42.590;23.364;2022-07-15T13:58:34;91631.44;;;31.82
71807;BMP280;59655;42.590;23.364;2022-07-15T14:00:59;91627.34;;;31.85
71807;BMP280;59655;42.590;23.364;2022-07-15T14:03:24;91637.00;;;31.98
71807;BMP280;59655;42.590;23.364;2022-07-15T14:05:50;91630.81;;;32.00
71807;BMP280;59655;42.590;23.364;2022-07-15T14:08:15;91623.97;;;32.07
71807;BMP280;59655;42.590;23.364;2022-07-15T14:10:40;91630.75;;;31.80
71807;BMP280;59655;42.590;23.364;2022-07-15T14:13:07;91624.69;;;32.42
71807;BMP280;59655;42.590;23.364;2022-07-15T14:15:32;91634.31;;;32.80
71807;BMP280;59655;42.590;23.364;2022-07-15T14:17:58;91628.13;;;32.59
71807;BMP280;59655;42.590;23.364;2022-07-15T14:20:23;91628.13;;;32.65
71807;BMP280;59655;42.590;23.364;2022-07-15T14:22:49;91630.91;;;32.41
71807;BMP280;59655;42.590;23.364;2022-07-15T14:25:14;91628.81;;;32.60
71807;BMP280;59655;42.590;23.364;2022-07-15T14:27:39;91632.25;;;32.68
71807;BMP280;59655;42.590;23.364;2022-07-15T14:30:06;91630.88;;;32.55
71807;BMP280;59655;42.590;23.364;2022-07-15T14:32:32;91626.03;;;32.29
71807;BMP280;59655;42.590;23.364;2022-07-15T14:34:59;91626.72;;;32.13
71807;BMP280;59655;42.590;23.364;2022-07-15T14:37:24;91636.34;;;32.08
71807;BMP280;59655;42.590;23.364;2022-07-15T14:39:50;91634.22;;;31.96
71807;BMP280;59655;42.590;23.364;2022-07-15T14:42:15;91634.25;;;32.00